sensor_id;sensor_type;location;lat;lon;timestamp;P1;durP1;ratioP1;P2;durP2;ratioP2
79243;SDS011;68672;42.676;23.356;2023-08-30T00:00:59;7.90;;;5.75;;
79243;SDS011;68672;42.676;23.356;2023-08-30T00:03:25;8.90;;;6.10;;
79243;SDS011;68672;42.676;23.356;2023-08-30T00:05:50;10.75;;;5.95;;
79243;SDS011;68672;42.676;23.356;2023-08-30T00:08:15;8.40;;;5.90;;
79243;SDS011;68672;42.676;23.356;2023-08-30T00:10:47;8.15;;;5.07;;
79243;SDS011;68672;42.676;23.356;2023-08-30T00:13:13;7.55;;;6.07;;
79243;SDS011;68672;42.676;23.356;2023-08-30T00:15:39;9.05;;;5.68;;
79243;SDS011;68672;42.676;23.356;2023-08-30T00:18:04;7.97;;;6.10;;
79243;SDS011;68672;42.676;23.356;2023-08-30T00:20:30;7.38;;;4.93;;
79243;SDS011;68672;42.676;23.356;2023-08-30T00:22:56;7.47;;;6.05;;
79243;SDS011;68672;42.676;23.356;2023-08-30T00:25:24;7.72;;;5.53;;
79243;SDS011;68672;42.676;23.356;2023-08-30T00:27:49;8.90;;;5.80;;
79243;SDS011;68672;42.676;23.356;2023-08-30T00:30:14;8.73;;;5.45;;
79243;SDS011;68672;42.676;23.356;2023-08-30T00:32:43;6.85;;;5.05;;
79243;SDS011;68672;42.676;23.356;2023-08-30T00:35:09;7.38;;;4.68;;
79243;SDS011;68672;42.676;23.356;2023-08-30T00:37:35;8.35;;;5.50;;
79243;SDS011;68672;42.676;23.356;2023-08-30T00:40:01;7.70;;;5.15;;
79243;SDS011;68672;42.676;23.356;2023-08-30T00:42:26;5.70;;;4.30;;
79243;SDS011;68672;42.676;23.356;2023-08-30T00:44:53;9.10;;;5.38;;
79243;SDS011;68672;42.676;23.356;2023-08-30T00:47:18;7.05;;;4.85;;
79243;SDS011;68672;42.676;23.356;2023-08-30T00:49:44;5.68;;;4.15;;
79243;SDS011;68672;42.676;23.356;2023-08-30T00:52:09;6.72;;;4.65;;
79243;SDS011;68672;42.676;23.356;2023-08-30T00:54:35;7.18;;;4.53;;
79243;SDS011;68672;42.676;23.356;2023-08-30T00:57:01;6.70;;;4.30;;
79243;SDS011;68672;42.676;23.356;2023-08-30T00:59:28;6.30;;;3.80;;
79243;SDS011;68672;42.676;23.356;2023-08-30T01:01:55;6.90;;;4.75;;
79243;SDS011;68672;42.676;23.356;2023-08-30T01:04:21;8.25;;;5.10;;
79243;SDS011;68672;42.676;23.356;2023-08-30T01:06:47;9.25;;;3.97;;
79243;SDS011;68672;42.676;23.356;2023-08-30T01:09:13;7.80;;;4.80;;
79243;SDS011;68672;42.676;23.356;2023-08-30T01:11:43;6.45;;;4.63;;
79243;SDS011;68672;42.676;23.356;2023-08-30T01:14:18;5.95;;;4.53;;
79243;SDS011;68672;42.676;23.356;2023-08-30T01:16:48;7.35;;;5.43;;
79243;SDS011;68672;42.676;23.356;2023-08-30T01:22:11;6.78;;;4.88;;
79243;SDS011;68672;42.676;23.356;2023-08-30T01:27:31;7.70;;;4.68;;
79243;SDS011;68672;42.676;23.356;2023-08-30T01:30:01;6.03;;;4.07;;
79243;SDS011;68672;42.676;23.356;2023-08-30T01:32:28;6.22;;;4.35;;
79243;SDS011;68672;42.676;23.356;2023-08-30T01:34:58;8.57;;;4.88;;
79243;SDS011;68672;42.676;23.356;2023-08-30T01:37:23;9.75;;;4.45;;
79243;SDS011;68672;42.676;23.356;2023-08-30T01:39:50;6.70;;;4.88;;
79243;SDS011;68672;42.676;23.356;2023-08-30T01:42:17;6.90;;;4.20;;
79243;SDS011;68672;42.676;23.356;2023-08-30T01:47:13;5.90;;;4.60;;
79243;SDS011;68672;42.676;23.356;2023-08-30T01:49:40;5.93;;;4.55;;
79243;SDS011;68672;42.676;23.356;2023-08-30T01:52:06;7.57;;;4.28;;
79243;SDS011;68672;42.676;23.356;2023-08-30T01:54:32;7.18;;;4.38;;
79243;SDS011;68672;42.676;23.356;2023-08-30T01:56:58;8.25;;;3.65;;
79243;SDS011;68672;42.676;23.356;2023-08-30T01:59:24;9.10;;;4.13;;
79243;SDS011;68672;42.676;23.356;2023-08-30T02:01:51;5.20;;;3.85;;
79243;SDS011;68672;42.676;23.356;2023-08-30T02:04:17;5.95;;;3.83;;
79243;SDS011;68672;42.676;23.356;2023-08-30T02:06:48;6.60;;;3.60;;
79243;SDS011;68672;42.676;23.356;2023-08-30T02:09:21;5.25;;;4.20;;
79243;SDS011;68672;42.676;23.356;2023-08-30T02:12:07;10.02;;;4.78;;
79243;SDS011;68672;42.676;23.356;2023-08-30T02:14:38;6.25;;;3.92;;
79243;SDS011;68672;42.676;23.356;2023-08-30T02:17:05;5.40;;;4.13;;
79243;SDS011;68672;42.676;23.356;2023-08-30T02:19:32;8.25;;;5.15;;
79243;SDS011;68672;42.676;23.356;2023-08-30T02:21:59;8.18;;;4.38;;
79243;SDS011;68672;42.676;23.356;2023-08-30T02:24:24;9.32;;;4.57;;
79243;SDS011;68672;42.676;23.356;2023-08-30T02:26:50;5.95;;;4.07;;
79243;SDS011;68672;42.676;23.356;2023-08-30T02:29:18;7.10;;;3.88;;
79243;SDS011;68672;42.676;23.356;2023-08-30T02:31:43;6.30;;;4.57;;
79243;SDS011;68672;42.676;23.356;2023-08-30T02:34:08;4.88;;;4.15;;
79243;SDS011;68672;42.676;23.356;2023-08-30T02:36:35;6.97;;;4.40;;
79243;SDS011;68672;42.676;23.356;2023-08-30T02:39:00;6.97;;;4.82;;
79243;SDS011;68672;42.676;23.356;2023-08-30T02:41:25;7.20;;;4.85;;
79243;SDS011;68672;42.676;23.356;2023-08-30T02:43:51;5.70;;;4.25;;
79243;SDS011;68672;42.676;23.356;2023-08-30T02:46:16;5.55;;;3.97;;
79243;SDS011;68672;42.676;23.356;2023-08-30T02:48:41;7.65;;;4.35;;
79243;SDS011;68672;42.676;23.356;2023-08-30T02:51:07;6.55;;;4.72;;
79243;SDS011;68672;42.676;23.356;2023-08-30T02:53:32;5.70;;;4.03;;
79243;SDS011;68672;42.676;23.356;2023-08-30T02:55:58;6.13;;;3.72;;
79243;SDS011;68672;42.676;23.356;2023-08-30T02:58:23;4.68;;;3.83;;
79243;SDS011;68672;42.676;23.356;2023-08-30T03:00:49;7.30;;;4.43;;
79243;SDS011;68672;42.676;23.356;2023-08-30T03:03:14;7.03;;;4.63;;
79243;SDS011;68672;42.676;23.356;2023-08-30T03:05:39;5.82;;;4.28;;
79243;SDS011;68672;42.676;23.356;2023-08-30T03:08:05;6.82;;;4.53;;
79243;SDS011;68672;42.676;23.356;2023-08-30T03:10:30;5.85;;;3.85;;
79243;SDS011;68672;42.676;23.356;2023-08-30T03:12:57;6.90;;;4.53;;
79243;SDS011;68672;42.676;23.356;2023-08-30T03:15:22;7.03;;;4.50;;
79243;SDS011;68672;42.676;23.356;2023-08-30T03:17:48;7.03;;;4.18;;
79243;SDS011;68672;42.676;23.356;2023-08-30T03:20:13;6.00;;;4.05;;
79243;SDS011;68672;42.676;23.356;2023-08-30T03:22:39;6.13;;;4.35;;
79243;SDS011;68672;42.676;23.356;2023-08-30T03:25:04;7.18;;;4.60;;
79243;SDS011;68672;42.676;23.356;2023-08-30T03:27:30;6.75;;;4.13;;
79243;SDS011;68672;42.676;23.356;2023-08-30T03:29:57;7.22;;;4.57;;
79243;SDS011;68672;42.676;23.356;2023-08-30T03:32:23;6.25;;;4.28;;
79243;SDS011;68672;42.676;23.356;2023-08-30T03:34:48;8.18;;;4.70;;
79243;SDS011;68672;42.676;23.356;2023-08-30T03:37:14;7.10;;;4.63;;
79243;SDS011;68672;42.676;23.356;2023-08-30T03:39:40;6.20;;;3.85;;
79243;SDS011;68672;42.676;23.356;2023-08-30T03:42:06;7.50;;;4.78;;
79243;SDS011;68672;42.676;23.356;2023-08-30T03:44:34;8.27;;;4.10;;
79243;SDS011;68672;42.676;23.356;2023-08-30T03:46:59;7.13;;;5.70;;
79243;SDS011;68672;42.676;23.356;2023-08-30T03:49:25;10.23;;;4.97;;
79243;SDS011;68672;42.676;23.356;2023-08-30T03:51:54;8.65;;;4.30;;
79243;SDS011;68672;42.676;23.356;2023-08-30T03:54:20;7.95;;;4.88;;
79243;SDS011;68672;42.676;23.356;2023-08-30T03:56:45;9.90;;;5.45;;
79243;SDS011;68672;42.676;23.356;2023-08-30T03:59:11;7.15;;;4.55;;
79243;SDS011;68672;42.676;23.356;2023-08-30T04:01:36;6.57;;;4.38;;
79243;SDS011;68672;42.676;23.356;2023-08-30T04:04:02;6.32;;;4.55;;
79243;SDS011;68672;42.676;23.356;2023-08-30T04:06:33;9.50;;;5.03;;
79243;SDS011;68672;42.676;23.356;2023-08-30T04:08:59;7.55;;;4.85;;
79243;SDS011;68672;42.676;23.356;2023-08-30T04:11:27;6.13;;;4.53;;
79243;SDS011;68672;42.676;23.356;2023-08-30T04:13:52;6.18;;;4.88;;
79243;SDS011;68672;42.676;23.356;2023-08-30T04:16:18;7.22;;;5.45;;
79243;SDS011;68672;42.676;23.356;2023-08-30T04:18:43;10.05;;;6.35;;
79243;SDS011;68672;42.676;23.356;2023-08-30T04:21:09;13.85;;;5.80;;
79243;SDS011;68672;42.676;23.356;2023-08-30T04:23:34;8.95;;;5.50;;
79243;SDS011;68672;42.676;23.356;2023-08-30T04:26:00;14.23;;;6.10;;
79243;SDS011;68672;42.676;23.356;2023-08-30T04:28:28;8.20;;;5.97;;
79243;SDS011;68672;42.676;23.356;2023-08-30T04:30:54;8.88;;;6.63;;
79243;SDS011;68672;42.676;23.356;2023-08-30T04:33:20;9.70;;;5.47;;
79243;SDS011;68672;42.676;23.356;2023-08-30T04:35:51;8.38;;;5.95;;
79243;SDS011;68672;42.676;23.356;2023-08-30T04:38:17;9.65;;;5.22;;
79243;SDS011;68672;42.676;23.356;2023-08-30T04:40:43;8.15;;;5.20;;
79243;SDS011;68672;42.676;23.356;2023-08-30T04:43:11;9.90;;;6.50;;
79243;SDS011;68672;42.676;23.356;2023-08-30T04:45:37;7.40;;;6.07;;
79243;SDS011;68672;42.676;23.356;2023-08-30T04:48:02;10.02;;;5.75;;
79243;SDS011;68672;42.676;23.356;2023-08-30T04:50:28;9.88;;;6.13;;
79243;SDS011;68672;42.676;23.356;2023-08-30T04:52:53;10.55;;;6.13;;
79243;SDS011;68672;42.676;23.356;2023-08-30T04:55:19;8.05;;;5.20;;
79243;SDS011;68672;42.676;23.356;2023-08-30T04:57:44;6.65;;;5.53;;
79243;SDS011;68672;42.676;23.356;2023-08-30T05:00:11;11.38;;;6.65;;
79243;SDS011;68672;42.676;23.356;2023-08-30T05:02:39;9.15;;;6.40;;
79243;SDS011;68672;42.676;23.356;2023-08-30T05:05:07;7.43;;;5.13;;
79243;SDS011;68672;42.676;23.356;2023-08-30T05:07:35;10.60;;;5.57;;
79243;SDS011;68672;42.676;23.356;2023-08-30T05:10:04;10.05;;;5.47;;
79243;SDS011;68672;42.676;23.356;2023-08-30T05:12:31;11.07;;;5.97;;
79243;SDS011;68672;42.676;23.356;2023-08-30T05:14:59;7.30;;;5.40;;
79243;SDS011;68672;42.676;23.356;2023-08-30T05:17:27;11.05;;;6.70;;
79243;SDS011;68672;42.676;23.356;2023-08-30T05:19:53;10.60;;;6.35;;
79243;SDS011;68672;42.676;23.356;2023-08-30T05:22:19;10.73;;;6.00;;
79243;SDS011;68672;42.676;23.356;2023-08-30T05:24:47;13.45;;;6.53;;
79243;SDS011;68672;42.676;23.356;2023-08-30T05:27:13;8.70;;;5.72;;
79243;SDS011;68672;42.676;23.356;2023-08-30T05:29:40;9.35;;;6.03;;
79243;SDS011;68672;42.676;23.356;2023-08-30T05:32:06;6.13;;;4.90;;
79243;SDS011;68672;42.676;23.356;2023-08-30T05:34:31;8.55;;;5.93;;
79243;SDS011;68672;42.676;23.356;2023-08-30T05:36:57;8.77;;;5.28;;
79243;SDS011;68672;42.676;23.356;2023-08-30T05:39:22;10.55;;;5.18;;
79243;SDS011;68672;42.676;23.356;2023-08-30T05:41:50;6.20;;;4.30;;
79243;SDS011;68672;42.676;23.356;2023-08-30T05:44:16;5.68;;;3.72;;
79243;SDS011;68672;42.676;23.356;2023-08-30T05:46:41;4.47;;;3.45;;
79243;SDS011;68672;42.676;23.356;2023-08-30T05:49:10;5.00;;;3.42;;
79243;SDS011;68672;42.676;23.356;2023-08-30T05:51:36;4.28;;;3.38;;
79243;SDS011;68672;42.676;23.356;2023-08-30T05:54:07;5.18;;;3.40;;
79243;SDS011;68672;42.676;23.356;2023-08-30T05:56:33;4.13;;;3.22;;
79243;SDS011;68672;42.676;23.356;2023-08-30T05:59:01;7.18;;;3.95;;
79243;SDS011;68672;42.676;23.356;2023-08-30T06:01:26;5.18;;;3.38;;
79243;SDS011;68672;42.676;23.356;2023-08-30T06:03:52;4.65;;;3.17;;
79243;SDS011;68672;42.676;23.356;2023-08-30T06:06:20;4.68;;;3.00;;
79243;SDS011;68672;42.676;23.356;2023-08-30T06:08:46;6.55;;;3.22;;
79243;SDS011;68672;42.676;23.356;2023-08-30T06:11:11;5.05;;;2.95;;
79243;SDS011;68672;42.676;23.356;2023-08-30T06:13:37;4.28;;;3.20;;
79243;SDS011;68672;42.676;23.356;2023-08-30T06:16:03;5.18;;;3.25;;
79243;SDS011;68672;42.676;23.356;2023-08-30T06:18:30;6.72;;;3.28;;
79243;SDS011;68672;42.676;23.356;2023-08-30T06:20:57;6.05;;;3.38;;
79243;SDS011;68672;42.676;23.356;2023-08-30T06:23:22;5.15;;;3.22;;
79243;SDS011;68672;42.676;23.356;2023-08-30T06:25:56;6.10;;;3.50;;
79243;SDS011;68672;42.676;23.356;2023-08-30T06:28:22;7.65;;;3.25;;
79243;SDS011;68672;42.676;23.356;2023-08-30T06:30:48;5.18;;;3.30;;
79243;SDS011;68672;42.676;23.356;2023-08-30T06:33:14;6.32;;;3.67;;
79243;SDS011;68672;42.676;23.356;2023-08-30T06:35:39;7.70;;;3.63;;
79243;SDS011;68672;42.676;23.356;2023-08-30T06:38:07;4.90;;;3.25;;
79243;SDS011;68672;42.676;23.356;2023-08-30T06:40:33;6.70;;;3.45;;
79243;SDS011;68672;42.676;23.356;2023-08-30T06:43:00;5.00;;;2.90;;
79243;SDS011;68672;42.676;23.356;2023-08-30T06:45:26;7.30;;;3.20;;
79243;SDS011;68672;42.676;23.356;2023-08-30T06:47:51;4.72;;;3.40;;
79243;SDS011;68672;42.676;23.356;2023-08-30T06:50:17;5.32;;;3.08;;
79243;SDS011;68672;42.676;23.356;2023-08-30T06:52:43;4.00;;;3.28;;
79243;SDS011;68672;42.676;23.356;2023-08-30T06:55:09;4.22;;;2.83;;
79243;SDS011;68672;42.676;23.356;2023-08-30T06:57:34;4.82;;;3.40;;
79243;SDS011;68672;42.676;23.356;2023-08-30T07:00:02;6.82;;;3.50;;
79243;SDS011;68672;42.676;23.356;2023-08-30T07:02:33;4.18;;;3.03;;
79243;SDS011;68672;42.676;23.356;2023-08-30T07:05:00;6.05;;;2.83;;
79243;SDS011;68672;42.676;23.356;2023-08-30T07:07:25;6.32;;;2.88;;
79243;SDS011;68672;42.676;23.356;2023-08-30T07:09:51;5.97;;;3.70;;
79243;SDS011;68672;42.676;23.356;2023-08-30T07:12:16;5.22;;;3.70;;
79243;SDS011;68672;42.676;23.356;2023-08-30T07:14:47;6.45;;;3.08;;
79243;SDS011;68672;42.676;23.356;2023-08-30T07:17:13;4.35;;;3.15;;
79243;SDS011;68672;42.676;23.356;2023-08-30T07:19:38;4.63;;;3.00;;
79243;SDS011;68672;42.676;23.356;2023-08-30T07:22:04;3.92;;;3.42;;
79243;SDS011;68672;42.676;23.356;2023-08-30T07:24:29;4.43;;;3.58;;
79243;SDS011;68672;42.676;23.356;2023-08-30T07:26:55;5.05;;;3.20;;
79243;SDS011;68672;42.676;23.356;2023-08-30T07:29:20;6.20;;;3.40;;
79243;SDS011;68672;42.676;23.356;2023-08-30T07:31:46;7.75;;;3.38;;
79243;SDS011;68672;42.676;23.356;2023-08-30T07:34:12;3.92;;;3.03;;
79243;SDS011;68672;42.676;23.356;2023-08-30T07:36:37;6.25;;;3.67;;
79243;SDS011;68672;42.676;23.356;2023-08-30T07:39:03;4.72;;;3.42;;
79243;SDS011;68672;42.676;23.356;2023-08-30T07:41:33;5.60;;;3.17;;
79243;SDS011;68672;42.676;23.356;2023-08-30T07:43:59;6.32;;;3.58;;
79243;SDS011;68672;42.676;23.356;2023-08-30T07:46:24;5.05;;;3.58;;
79243;SDS011;68672;42.676;23.356;2023-08-30T07:48:50;6.70;;;3.08;;
79243;SDS011;68672;42.676;23.356;2023-08-30T07:51:16;5.95;;;3.97;;
79243;SDS011;68672;42.676;23.356;2023-08-30T07:53:41;3.65;;;3.03;;
79243;SDS011;68672;42.676;23.356;2023-08-30T07:56:09;9.07;;;4.20;;
79243;SDS011;68672;42.676;23.356;2023-08-30T07:58:35;5.50;;;3.30;;
79243;SDS011;68672;42.676;23.356;2023-08-30T08:01:00;5.40;;;3.20;;
79243;SDS011;68672;42.676;23.356;2023-08-30T08:03:27;5.22;;;3.28;;
79243;SDS011;68672;42.676;23.356;2023-08-30T08:05:52;5.30;;;3.35;;
79243;SDS011;68672;42.676;23.356;2023-08-30T08:08:18;6.93;;;3.83;;
79243;SDS011;68672;42.676;23.356;2023-08-30T08:10:43;6.05;;;3.88;;
79243;SDS011;68672;42.676;23.356;2023-08-30T08:13:09;6.90;;;3.55;;
79243;SDS011;68672;42.676;23.356;2023-08-30T08:15:34;5.18;;;3.30;;
79243;SDS011;68672;42.676;23.356;2023-08-30T08:18:00;4.78;;;3.45;;
79243;SDS011;68672;42.676;23.356;2023-08-30T08:20:26;6.47;;;3.55;;
79243;SDS011;68672;42.676;23.356;2023-08-30T08:22:52;5.65;;;3.50;;
79243;SDS011;68672;42.676;23.356;2023-08-30T08:25:17;5.80;;;3.53;;
79243;SDS011;68672;42.676;23.356;2023-08-30T08:27:47;5.15;;;3.30;;
79243;SDS011;68672;42.676;23.356;2023-08-30T08:30:12;4.47;;;3.03;;
79243;SDS011;68672;42.676;23.356;2023-08-30T08:32:38;5.43;;;3.50;;
79243;SDS011;68672;42.676;23.356;2023-08-30T08:35:04;6.20;;;3.17;;
79243;SDS011;68672;42.676;23.356;2023-08-30T08:37:29;4.78;;;3.45;;
79243;SDS011;68672;42.676;23.356;2023-08-30T08:39:56;5.93;;;2.78;;
79243;SDS011;68672;42.676;23.356;2023-08-30T08:42:21;4.60;;;2.90;;
79243;SDS011;68672;42.676;23.356;2023-08-30T08:44:47;5.25;;;2.70;;
79243;SDS011;68672;42.676;23.356;2023-08-30T08:47:19;5.40;;;3.75;;
79243;SDS011;68672;42.676;23.356;2023-08-30T08:49:54;5.35;;;2.70;;
79243;SDS011;68672;42.676;23.356;2023-08-30T08:52:20;6.20;;;3.33;;
79243;SDS011;68672;42.676;23.356;2023-08-30T08:54:46;4.28;;;2.60;;
79243;SDS011;68672;42.676;23.356;2023-08-30T08:57:11;3.30;;;2.50;;
79243;SDS011;68672;42.676;23.356;2023-08-30T08:59:38;4.85;;;3.17;;
79243;SDS011;68672;42.676;23.356;2023-08-30T09:02:03;5.28;;;2.80;;
79243;SDS011;68672;42.676;23.356;2023-08-30T09:04:30;4.43;;;2.75;;
79243;SDS011;68672;42.676;23.356;2023-08-30T09:06:56;6.15;;;2.80;;
79243;SDS011;68672;42.676;23.356;2023-08-30T09:09:23;5.65;;;3.22;;
79243;SDS011;68672;42.676;23.356;2023-08-30T09:11:49;5.32;;;3.17;;
79243;SDS011;68672;42.676;23.356;2023-08-30T09:14:15;4.70;;;3.28;;
79243;SDS011;68672;42.676;23.356;2023-08-30T09:16:40;4.25;;;3.00;;
79243;SDS011;68672;42.676;23.356;2023-08-30T09:19:06;6.07;;;3.63;;
79243;SDS011;68672;42.676;23.356;2023-08-30T09:21:32;4.97;;;3.30;;
79243;SDS011;68672;42.676;23.356;2023-08-30T09:24:05;5.72;;;2.78;;
79243;SDS011;68672;42.676;23.356;2023-08-30T09:26:32;4.78;;;3.03;;
79243;SDS011;68672;42.676;23.356;2023-08-30T09:29:02;4.43;;;2.67;;
79243;SDS011;68672;42.676;23.356;2023-08-30T09:31:38;4.22;;;3.08;;
79243;SDS011;68672;42.676;23.356;2023-08-30T09:34:05;5.47;;;3.35;;
79243;SDS011;68672;42.676;23.356;2023-08-30T09:36:38;7.28;;;3.45;;
79243;SDS011;68672;42.676;23.356;2023-08-30T09:39:05;6.60;;;3.63;;
79243;SDS011;68672;42.676;23.356;2023-08-30T09:41:40;4.35;;;3.00;;
79243;SDS011;68672;42.676;23.356;2023-08-30T09:44:10;9.20;;;3.53;;
79243;SDS011;68672;42.676;23.356;2023-08-30T09:46:45;4.57;;;3.33;;
79243;SDS011;68672;42.676;23.356;2023-08-30T09:51:40;5.57;;;3.05;;
79243;SDS011;68672;42.676;23.356;2023-08-30T09:54:09;5.95;;;3.38;;
79243;SDS011;68672;42.676;23.356;2023-08-30T09:56:39;5.20;;;3.22;;
79243;SDS011;68672;42.676;23.356;2023-08-30T09:59:06;5.32;;;3.92;;
79243;SDS011;68672;42.676;23.356;2023-08-30T10:01:32;5.47;;;3.85;;
79243;SDS011;68672;42.676;23.356;2023-08-30T10:03:58;6.97;;;3.38;;
79243;SDS011;68672;42.676;23.356;2023-08-30T10:06:24;4.68;;;3.40;;
79243;SDS011;68672;42.676;23.356;2023-08-30T10:08:50;4.93;;;3.05;;
79243;SDS011;68672;42.676;23.356;2023-08-30T10:11:17;5.43;;;3.60;;
79243;SDS011;68672;42.676;23.356;2023-08-30T10:13:43;4.88;;;3.85;;
79243;SDS011;68672;42.676;23.356;2023-08-30T10:16:12;4.28;;;3.70;;
79243;SDS011;68672;42.676;23.356;2023-08-30T10:18:43;7.00;;;3.78;;
79243;SDS011;68672;42.676;23.356;2023-08-30T10:21:12;6.68;;;3.45;;
79243;SDS011;68672;42.676;23.356;2023-08-30T10:23:38;6.65;;;3.90;;
79243;SDS011;68672;42.676;23.356;2023-08-30T10:26:04;5.05;;;3.42;;
79243;SDS011;68672;42.676;23.356;2023-08-30T10:28:32;5.40;;;4.07;;
79243;SDS011;68672;42.676;23.356;2023-08-30T10:30:59;3.90;;;3.25;;
79243;SDS011;68672;42.676;23.356;2023-08-30T10:33:24;4.53;;;3.25;;
79243;SDS011;68672;42.676;23.356;2023-08-30T10:35:51;5.22;;;4.03;;
79243;SDS011;68672;42.676;23.356;2023-08-30T10:38:28;5.47;;;3.92;;
79243;SDS011;68672;42.676;23.356;2023-08-30T10:40:54;6.03;;;3.75;;
79243;SDS011;68672;42.676;23.356;2023-08-30T10:43:30;9.45;;;7.43;;
79243;SDS011;68672;42.676;23.356;2023-08-30T10:45:59;10.98;;;6.18;;
79243;SDS011;68672;42.676;23.356;2023-08-30T10:48:38;6.70;;;4.07;;
79243;SDS011;68672;42.676;23.356;2023-08-30T10:53:32;4.90;;;3.40;;
79243;SDS011;68672;42.676;23.356;2023-08-30T10:56:09;5.07;;;3.33;;
79243;SDS011;68672;42.676;23.356;2023-08-30T10:58:38;5.00;;;3.45;;
79243;SDS011;68672;42.676;23.356;2023-08-30T11:01:09;5.55;;;4.07;;
79243;SDS011;68672;42.676;23.356;2023-08-30T11:03:37;5.55;;;3.90;;
79243;SDS011;68672;42.676;23.356;2023-08-30T11:06:03;7.15;;;3.58;;
79243;SDS011;68672;42.676;23.356;2023-08-30T11:08:28;6.70;;;3.85;;
79243;SDS011;68672;42.676;23.356;2023-08-30T11:11:04;6.10;;;4.28;;
79243;SDS011;68672;42.676;23.356;2023-08-30T11:13:30;5.80;;;3.78;;
79243;SDS011;68672;42.676;23.356;2023-08-30T11:15:59;8.75;;;4.00;;
79243;SDS011;68672;42.676;23.356;2023-08-30T11:18:26;6.15;;;4.03;;
79243;SDS011;68672;42.676;23.356;2023-08-30T11:21:00;5.70;;;4.20;;
79243;SDS011;68672;42.676;23.356;2023-08-30T11:23:27;5.32;;;4.38;;
79243;SDS011;68672;42.676;23.356;2023-08-30T11:25:56;6.93;;;3.85;;
79243;SDS011;68672;42.676;23.356;2023-08-30T11:30:47;5.60;;;3.95;;
79243;SDS011;68672;42.676;23.356;2023-08-30T11:33:12;5.55;;;4.05;;
79243;SDS011;68672;42.676;23.356;2023-08-30T11:35:40;7.38;;;3.88;;
79243;SDS011;68672;42.676;23.356;2023-08-30T11:38:06;6.53;;;4.38;;
79243;SDS011;68672;42.676;23.356;2023-08-30T11:40:32;5.60;;;4.28;;
79243;SDS011;68672;42.676;23.356;2023-08-30T11:42:58;6.40;;;3.85;;
79243;SDS011;68672;42.676;23.356;2023-08-30T11:45:23;6.22;;;4.20;;
79243;SDS011;68672;42.676;23.356;2023-08-30T11:47:48;5.43;;;3.78;;
79243;SDS011;68672;42.676;23.356;2023-08-30T11:50:20;7.65;;;4.18;;
79243;SDS011;68672;42.676;23.356;2023-08-30T11:52:46;8.50;;;4.57;;
79243;SDS011;68672;42.676;23.356;2023-08-30T11:55:11;6.75;;;4.10;;
79243;SDS011;68672;42.676;23.356;2023-08-30T11:57:42;5.30;;;4.20;;
79243;SDS011;68672;42.676;23.356;2023-08-30T12:00:11;7.75;;;4.75;;
79243;SDS011;68672;42.676;23.356;2023-08-30T12:02:42;5.05;;;3.95;;
79243;SDS011;68672;42.676;23.356;2023-08-30T12:05:15;5.93;;;4.13;;
79243;SDS011;68672;42.676;23.356;2023-08-30T12:07:41;5.82;;;3.70;;
79243;SDS011;68672;42.676;23.356;2023-08-30T12:10:07;5.65;;;4.43;;
79243;SDS011;68672;42.676;23.356;2023-08-30T12:12:34;5.72;;;4.13;;
79243;SDS011;68672;42.676;23.356;2023-08-30T12:15:01;6.32;;;4.28;;
79243;SDS011;68672;42.676;23.356;2023-08-30T12:17:34;5.15;;;4.15;;
79243;SDS011;68672;42.676;23.356;2023-08-30T12:20:00;5.47;;;4.38;;
79243;SDS011;68672;42.676;23.356;2023-08-30T12:22:40;5.90;;;3.83;;
79243;SDS011;68672;42.676;23.356;2023-08-30T12:25:26;5.88;;;4.75;;
79243;SDS011;68672;42.676;23.356;2023-08-30T12:27:52;6.28;;;4.60;;
79243;SDS011;68672;42.676;23.356;2023-08-30T12:30:18;5.97;;;4.63;;
79243;SDS011;68672;42.676;23.356;2023-08-30T12:32:44;4.53;;;3.70;;
79243;SDS011;68672;42.676;23.356;2023-08-30T12:35:10;6.18;;;4.35;;
79243;SDS011;68672;42.676;23.356;2023-08-30T12:37:36;6.65;;;4.47;;
79243;SDS011;68672;42.676;23.356;2023-08-30T12:40:04;5.72;;;4.32;;
79243;SDS011;68672;42.676;23.356;2023-08-30T12:42:31;5.07;;;3.90;;
79243;SDS011;68672;42.676;23.356;2023-08-30T12:44:57;4.90;;;4.07;;
79243;SDS011;68672;42.676;23.356;2023-08-30T12:47:22;5.82;;;3.72;;
79243;SDS011;68672;42.676;23.356;2023-08-30T12:49:47;6.15;;;3.95;;
79243;SDS011;68672;42.676;23.356;2023-08-30T12:52:13;6.65;;;4.18;;
79243;SDS011;68672;42.676;23.356;2023-08-30T12:54:38;5.72;;;4.32;;
79243;SDS011;68672;42.676;23.356;2023-08-30T12:57:04;7.03;;;4.13;;
79243;SDS011;68672;42.676;23.356;2023-08-30T12:59:29;5.82;;;4.60;;
79243;SDS011;68672;42.676;23.356;2023-08-30T13:01:54;5.75;;;4.28;;
79243;SDS011;68672;42.676;23.356;2023-08-30T13:04:20;5.82;;;4.25;;
79243;SDS011;68672;42.676;23.356;2023-08-30T13:06:45;5.85;;;4.75;;
79243;SDS011;68672;42.676;23.356;2023-08-30T13:09:11;5.53;;;4.30;;
79243;SDS011;68672;42.676;23.356;2023-08-30T13:11:36;5.55;;;4.00;;
79243;SDS011;68672;42.676;23.356;2023-08-30T13:14:02;6.20;;;4.65;;
79243;SDS011;68672;42.676;23.356;2023-08-30T13:16:27;6.80;;;4.85;;
79243;SDS011;68672;42.676;23.356;2023-08-30T13:18:52;5.43;;;4.30;;
79243;SDS011;68672;42.676;23.356;2023-08-30T13:21:18;6.28;;;4.10;;
79243;SDS011;68672;42.676;23.356;2023-08-30T13:23:43;6.40;;;5.32;;
79243;SDS011;68672;42.676;23.356;2023-08-30T13:26:09;5.97;;;4.43;;
79243;SDS011;68672;42.676;23.356;2023-08-30T13:28:35;6.90;;;4.63;;
79243;SDS011;68672;42.676;23.356;2023-08-30T13:31:00;5.32;;;4.15;;
79243;SDS011;68672;42.676;23.356;2023-08-30T13:33:26;4.93;;;3.25;;
79243;SDS011;68672;42.676;23.356;2023-08-30T13:35:52;6.00;;;3.65;;
79243;SDS011;68672;42.676;23.356;2023-08-30T13:38:17;8.45;;;3.70;;
79243;SDS011;68672;42.676;23.356;2023-08-30T13:40:43;5.75;;;4.07;;
79243;SDS011;68672;42.676;23.356;2023-08-30T13:43:09;5.78;;;2.80;;
79243;SDS011;68672;42.676;23.356;2023-08-30T13:45:35;4.95;;;3.17;;
79243;SDS011;68672;42.676;23.356;2023-08-30T13:48:00;4.22;;;3.33;;
79243;SDS011;68672;42.676;23.356;2023-08-30T13:50:26;6.60;;;3.05;;
79243;SDS011;68672;42.676;23.356;2023-08-30T13:52:58;6.03;;;3.28;;
79243;SDS011;68672;42.676;23.356;2023-08-30T13:55:23;6.22;;;3.00;;
79243;SDS011;68672;42.676;23.356;2023-08-30T13:57:49;4.18;;;2.70;;
79243;SDS011;68672;42.676;23.356;2023-08-30T14:00:15;4.45;;;3.05;;
79243;SDS011;68672;42.676;23.356;2023-08-30T14:02:44;5.55;;;3.00;;
79243;SDS011;68672;42.676;23.356;2023-08-30T14:05:12;5.10;;;2.88;;
79243;SDS011;68672;42.676;23.356;2023-08-30T14:07:38;4.10;;;3.00;;
79243;SDS011;68672;42.676;23.356;2023-08-30T14:10:03;5.13;;;3.00;;
79243;SDS011;68672;42.676;23.356;2023-08-30T14:12:29;4.95;;;3.55;;
79243;SDS011;68672;42.676;23.356;2023-08-30T14:14:54;5.53;;;3.30;;
79243;SDS011;68672;42.676;23.356;2023-08-30T14:17:20;6.00;;;2.92;;
79243;SDS011;68672;42.676;23.356;2023-08-30T14:19:45;4.63;;;2.97;;
79243;SDS011;68672;42.676;23.356;2023-08-30T14:22:10;5.30;;;2.72;;
79243;SDS011;68672;42.676;23.356;2023-08-30T14:24:36;4.10;;;2.80;;
79243;SDS011;68672;42.676;23.356;2023-08-30T14:27:01;4.82;;;2.88;;
79243;SDS011;68672;42.676;23.356;2023-08-30T14:29:28;4.55;;;2.58;;
79243;SDS011;68672;42.676;23.356;2023-08-30T14:31:53;5.13;;;2.85;;
79243;SDS011;68672;42.676;23.356;2023-08-30T14:34:22;5.38;;;2.72;;
79243;SDS011;68672;42.676;23.356;2023-08-30T14:36:47;4.78;;;2.80;;
79243;SDS011;68672;42.676;23.356;2023-08-30T14:39:13;7.13;;;2.90;;
79243;SDS011;68672;42.676;23.356;2023-08-30T14:41:42;4.07;;;2.70;;
79243;SDS011;68672;42.676;23.356;2023-08-30T14:44:08;5.35;;;2.83;;
79243;SDS011;68672;42.676;23.356;2023-08-30T14:46:34;3.95;;;2.40;;